»·PEaware :: WAT169 KABQ-KBUR

WAT169 :: KABQ-KBUR

FLIGHT INFORMATION

Flight Status: Arrived
Operator:
Walker Air Transport
More flights by this operator :: More flights under this callsign
Pilot: Marty P. (27464)
Aircraft: BOEING 727-200
(B722)
More flights by this aircraft type
Origin: KABQ Albuquerque Intl Sunport
United States
Destination: KBUR Bob Hope-Burbank
United States
More flights between these airports :: More routes between these airports
Route: LARGO3 GUP J72 PGS J64 HEC LYNXX8
File this flight plan on PilotEdge
Remarks:
Altitude:
(Current/Filed)
34,000ft
Speed:
(Current/Filed)
530kts
Departed: 26-Nov-21 10:39 AM
Arrived: 26-Nov-21 12:14 PM
Distance/Time
Traveled:
582nm/1:35
Distance/Time
To Go:
Arrived

Flight Plot

Page will automatically refresh every two minutes.

Flight plan parsing failed; only flown route is shown


Map Options




Map Legend


Flown Route
Filed Route
Departure Airport
Arrival Airport
Navaid (VOR, NDB)
Fix

Horizontal Profiles

Position Reports

Time Latitude Longitude Heading Altitude Ground
Speed
26-Nov-21 10:07 35.047913 -106.618142 179 5312ft 0kts
26-Nov-21 10:08 35.047913 -106.618142 179 5312ft 0kts
26-Nov-21 10:09 35.047913 -106.618142 179 5312ft 0kts
26-Nov-21 10:10 35.047913 -106.618142 179 5312ft 0kts
26-Nov-21 10:11 35.047913 -106.618142 179 5312ft 0kts
26-Nov-21 10:12 35.047913 -106.618142 179 5312ft 0kts
26-Nov-21 10:13 35.047913 -106.618142 179 5312ft 0kts
26-Nov-21 10:14 35.047913 -106.618142 179 5312ft 0kts
26-Nov-21 10:15 35.047913 -106.618142 179 5312ft 0kts
26-Nov-21 10:16 35.047913 -106.618142 179 5312ft 0kts
26-Nov-21 10:17 35.047913 -106.618142 179 5312ft 0kts
26-Nov-21 10:18 35.047913 -106.618142 179 5312ft 0kts
26-Nov-21 10:19 35.047913 -106.618142 179 5312ft 0kts
26-Nov-21 10:20 35.047913 -106.618142 179 5312ft 0kts
26-Nov-21 10:21 35.047913 -106.618142 179 5312ft 0kts
26-Nov-21 10:22 35.047913 -106.618142 179 5312ft 0kts
26-Nov-21 10:23 35.047913 -106.618142 179 5312ft 0kts
26-Nov-21 10:24 35.047914 -106.618142 179 5312ft 0kts
26-Nov-21 10:25 35.048432 -106.618054 259 5310ft 1kts
26-Nov-21 10:26 35.048423 -106.618946 269 5309ft 1kts
26-Nov-21 10:27 35.047859 -106.619570 180 5309ft 0kts
26-Nov-21 10:28 35.047859 -106.619570 180 5309ft 0kts
26-Nov-21 10:29 35.047859 -106.619570 180 5309ft 0kts
26-Nov-21 10:30 35.047859 -106.619570 180 5309ft 0kts
26-Nov-21 10:31 35.047859 -106.619570 180 5309ft 0kts
26-Nov-21 10:32 35.047859 -106.619570 180 5309ft 0kts
26-Nov-21 10:33 35.047859 -106.619570 180 5309ft 0kts
26-Nov-21 10:34 35.047859 -106.619570 180 5309ft 0kts
26-Nov-21 10:35 35.047682 -106.619572 179 5310ft 7kts
26-Nov-21 10:36 35.045580 -106.620435 268 5311ft 8kts
26-Nov-21 10:37 35.044671 -106.621396 181 5305ft 4kts
26-Nov-21 10:38 35.044275 -106.607151 90 5324ft 144kts
26-Nov-21 10:39 35.051314 -106.542721 35 7323ft 217kts
26-Nov-21 10:40 35.107992 -106.567791 318 10006ft 264kts
26-Nov-21 10:41 35.124938 -106.650529 257 12515ft 268kts
26-Nov-21 10:42 35.098867 -106.739482 248 13625ft 307kts
26-Nov-21 10:43 35.064840 -106.846221 248 16031ft 357kts
26-Nov-21 10:44 35.066395 -106.961614 308 18865ft 371kts
26-Nov-21 10:45 35.100167 -107.082736 285 21389ft 390kts
26-Nov-21 10:46 35.130622 -107.217178 286 23039ft 426kts
26-Nov-21 10:47 35.163135 -107.359264 286 25147ft 441kts
26-Nov-21 10:48 35.194010 -107.506010 282 26860ft 458kts
26-Nov-21 10:49 35.217709 -107.661184 283 28490ft 470kts
26-Nov-21 10:50 35.248824 -107.815904 287 30407ft 467kts
26-Nov-21 10:51 35.286889 -107.965831 289 32262ft 461kts
26-Nov-21 10:52 35.325381 -108.119573 287 32670ft 486kts
26-Nov-21 10:53 35.358471 -108.281949 284 33893ft 490kts
26-Nov-21 10:54 35.388360 -108.444115 285 34452ft 504kts
26-Nov-21 10:55 35.423111 -108.614363 286 34447ft 525kts
26-Nov-21 10:56 35.459047 -108.789324 285 34444ft 530kts
26-Nov-21 10:57 35.479082 -108.967159 274 34443ft 528kts
26-Nov-21 10:58 35.490175 -109.145733 276 34447ft 528kts
26-Nov-21 10:59 35.501582 -109.325432 276 34447ft 530kts
26-Nov-21 11:00 35.512215 -109.505360 275 34448ft 535kts
26-Nov-21 11:01 35.521625 -109.687319 274 34448ft 534kts
26-Nov-21 11:02 35.530193 -109.869651 274 34447ft 534kts
26-Nov-21 11:03 35.538241 -110.051026 274 34452ft 534kts
26-Nov-21 11:04 35.545888 -110.233021 275 34457ft 534kts
26-Nov-21 11:05 35.553729 -110.414731 274 34458ft 534kts
26-Nov-21 11:06 35.561614 -110.596765 275 34457ft 533kts
26-Nov-21 11:07 35.569953 -110.777762 274 34456ft 529kts
26-Nov-21 11:08 35.577610 -110.958009 274 34457ft 528kts
26-Nov-21 11:10 35.584401 -111.137522 274 34457ft 527kts
26-Nov-21 11:11 35.590687 -111.317505 274 34427ft 527kts
26-Nov-21 11:12 35.596798 -111.495073 274 34420ft 527kts
26-Nov-21 11:13 35.596478 -111.674693 265 34414ft 528kts
26-Nov-21 11:14 35.580938 -111.853619 266 34393ft 528kts
26-Nov-21 11:15 35.575807 -112.033427 272 34394ft 526kts
26-Nov-21 11:16 35.586670 -112.210933 278 34395ft 526kts
26-Nov-21 11:17 35.605538 -112.388773 279 34398ft 524kts
26-Nov-21 11:18 35.617362 -112.566771 274 34401ft 525kts
26-Nov-21 11:19 35.616140 -112.745547 269 34400ft 525kts
26-Nov-21 11:20 35.612036 -112.924656 271 34392ft 524kts
26-Nov-21 11:21 35.615411 -113.102314 274 34378ft 521kts
26-Nov-21 11:22 35.620918 -113.279021 273 34356ft 518kts
26-Nov-21 11:23 35.622356 -113.454846 271 34356ft 515kts
26-Nov-21 11:24 35.586410 -113.622617 253 34359ft 512kts
26-Nov-21 11:25 35.551451 -113.788672 247 34358ft 508kts
26-Nov-21 11:26 35.500442 -113.952840 252 34359ft 521kts
26-Nov-21 11:27 35.453487 -114.120255 252 34343ft 518kts
26-Nov-21 11:28 35.405269 -114.285960 252 34305ft 516kts
26-Nov-21 11:29 35.355045 -114.451030 251 34291ft 516kts
26-Nov-21 11:30 35.303829 -114.614762 251 34293ft 516kts
26-Nov-21 11:31 35.252473 -114.778541 251 34293ft 516kts
26-Nov-21 11:32 35.201335 -114.942518 251 34292ft 516kts
26-Nov-21 11:32 35.159010 -115.078790 251 34305ft 515kts
26-Nov-21 11:34 35.100072 -115.268959 252 34322ft 514kts
26-Nov-21 11:35 35.054129 -115.433610 260 34318ft 509kts
26-Nov-21 11:36 35.032400 -115.603286 266 34376ft 505kts
26-Nov-21 11:37 35.013182 -115.770128 259 34202ft 490kts
26-Nov-21 11:37 34.978220 -115.902825 249 32098ft 504kts
26-Nov-21 11:38 34.919050 -116.058412 247 29875ft 507kts
26-Nov-21 11:40 34.859541 -116.245621 253 25991ft 509kts
26-Nov-21 11:41 34.815880 -116.405447 253 24399ft 492kts
26-Nov-21 11:41 34.791854 -116.539497 257 24345ft 490kts
26-Nov-21 11:42 34.768700 -116.701139 266 24357ft 485kts
26-Nov-21 11:43 34.755203 -116.864473 265 24357ft 487kts
26-Nov-21 11:45 34.737772 -117.050308 267 24345ft 436kts
26-Nov-21 11:46 34.730038 -117.188196 268 21728ft 401kts
26-Nov-21 11:46 34.722215 -117.299813 265 18849ft 393kts
26-Nov-21 11:47 34.707467 -117.427439 262 16180ft 366kts
26-Nov-21 11:48 34.690162 -117.548646 262 14349ft 369kts
26-Nov-21 11:49 34.674972 -117.670239 263 12900ft 354kts
26-Nov-21 11:50 34.662936 -117.786143 263 12006ft 335kts
26-Nov-21 11:51 34.651401 -117.890061 263 11999ft 297kts
26-Nov-21 11:52 34.640309 -117.987988 263 12005ft 288kts
26-Nov-21 11:53 34.622645 -118.083021 256 12009ft 290kts
26-Nov-21 11:54 34.605024 -118.178415 257 12129ft 286kts
26-Nov-21 11:55 34.585399 -118.271013 257 11681ft 270kts
26-Nov-21 11:56 34.567714 -118.353744 257 9516ft 249kts
26-Nov-21 11:57 34.550661 -118.431994 256 8121ft 237kts
26-Nov-21 11:58 34.521331 -118.500772 196 8059ft 243kts
26-Nov-21 11:59 34.454276 -118.508165 180 7526ft 237kts
26-Nov-21 12:00 34.393989 -118.479753 153 6121ft 225kts
26-Nov-21 12:01 34.330506 -118.463757 189 6043ft 273kts
26-Nov-21 12:02 34.249654 -118.484777 192 6018ft 312kts
26-Nov-21 12:03 34.207477 -118.536021 277 4649ft 201kts
26-Nov-21 12:04 34.203568 -118.594634 258 4074ft 194kts
26-Nov-21 12:05 34.199989 -118.661606 276 3971ft 200kts
26-Nov-21 12:06 34.181462 -118.711488 168 3824ft 190kts
26-Nov-21 12:07 34.182252 -118.661079 55 3721ft 214kts
26-Nov-21 12:08 34.199765 -118.587824 88 3643ft 211kts
26-Nov-21 12:09 34.199748 -118.524932 89 3004ft 174kts
26-Nov-21 12:10 34.199075 -118.472228 88 2457ft 151kts
26-Nov-21 12:11 34.198416 -118.424156 83 1671ft 146kts
26-Nov-21 12:12 34.197991 -118.375044 90 849ft 135kts
26-Nov-21 12:13 34.197347 -118.351108 161 703ft 9kts
26-Nov-21 12:14 34.196787 -118.351080 180 703ft 0kts
26-Nov-21 12:15 34.196787 -118.351080 180 703ft 0kts
26-Nov-21 12:16 34.196787 -118.351080 180 703ft 0kts
26-Nov-21 12:17 34.196787 -118.351080 180 703ft 0kts
26-Nov-21 12:18 34.196787 -118.351080 180 703ft 0kts
26-Nov-21 12:19 34.196787 -118.351080 180 703ft 0kts
26-Nov-21 12:20 34.196787 -118.351080 180 703ft 0kts

Navigation Log

Ident Type
Flight plan parsing failed, navigation log unavailable